Date,TemperatureHighF,TemperatureAvgF,TemperatureLowF,DewpointHighF,DewpointAvgF,DewpointLowF,HumidityHigh,HumidityAvg,HumidityLow,PressureMaxIn,PressureMinIn,WindSpeedMaxMPH,WindSpeedAvgMPH,GustSpeedMaxMPH,PrecipitationSumIn
2013-1-1,23,15,7,15,9,3,92,75,56,30.29,30.20,12,1,12,0.00
2013-1-2,34,25,7,26,18,3,84,77,68,30.26,30.09,16,6,16,0.00
2013-1-3,31,26,15,28,20,11,88,79,67,30.39,30.14,22,8,22,0.01
2013-1-4,36,25,13,28,20,9,95,80,68,30.37,30.23,23,6,23,0.01
2013-1-5,38,31,19,36,28,17,93,89,76,30.26,29.97,26,8,26,0.03
2013-1-6,32,25,16,27,20,13,88,80,67,30.37,30.00,17,6,17,0.03
2013-1-7,42,31,16,31,25,13,91,79,60,30.36,30.08,29,6,29,0.03
2013-1-8,46,37,29,36,31,25,86,78,66,30.13,30.00,21,7,21,0.03
2013-1-9,48,38,27,36,31,24,92,76,55,30.51,30.04,20,6,20,0.00
2013-1-10,42,34,25,38,31,23,97,89,70,30.50,29.81,16,3,16,0.71
2013-1-11,56,48,39,52,46,38,99,93,80,29.81,29.61,26,10,26,0.06
2013-1-12,54,37,23,49,31,20,90,79,69,30.07,29.64,28,11,28,0.00
2013-1-13,23,18,13,21,12,8,91,77,68,30.35,29.98,23,8,23,0.00
2013-1-14,30,17,8,16,10,4,89,74,53,30.53,30.35,12,1,12,0.02
2013-1-15,32,19,8,20,13,5,92,77,56,30.49,30.18,12,1,12,0.03
2013-1-16,39,29,13,34,22,10,89,76,63,30.18,29.89,28,7,28,0.00
2013-1-17,38,29,21,34,20,14,86,70,49,30.46,30.12,20,5,20,0.00
2013-1-18,48,38,21,37,29,17,87,72,63,30.45,29.92,36,14,36,0.01
2013-1-19,53,43,24,38,33,11,81,68,52,30.14,29.77,37,15,37,0.00
2013-1-20,24,17,13,13,9,5,81,70,57,30.41,30.14,32,9,32,0.00
2013-1-21,15,10,5,9,0,-6,77,67,50,30.41,30.28,26,13,26,0.00
2013-1-22,16,10,2,4,0,-5,83,64,54,30.49,30.40,17,5,17,0.00
2013-1-23,32,21,14,17,10,3,69,62,53,30.48,30.15,26,8,26,0.00
2013-1-24,23,16,8,13,4,-2,72,59,47,30.72,30.33,20,4,20,0.00
2013-1-25,38,27,19,23,17,9,92,65,50,30.33,30.02,26,8,26,0.00
2013-1-26,34,23,12,18,12,6,81,65,45,30.46,30.29,10,2,10,0.00
2013-1-27,45,34,29,44,29,18,97,82,63,30.35,29.83,22,7,22,0.02
2013-1-28,54,45,41,54,44,40,99,96,94,29.96,29.68,25,6,25,0.02
2013-1-29,63,54,39,60,52,38,100,94,89,29.69,29.44,29,8,29,0.93
2013-1-30,40,30,17,39,28,12,97,91,80,29.81,29.30,30,10,30,0.26
2013-1-31,20,12,4,17,6,-3,92,76,70,30.36,29.82,27,14,27,0.00